Time;durP1;ratioP1;P1;durP2;ratioP2;P2;SDS_P1;SDS_P2;PMS_P1;PMS_P2;Temp;Humidity;BMP_temperature;BMP_pressure;BME280_temperature;BME280_humidity;BME280_pressure;Samples;Min_cycle;Max_cycle;Signal;HPM_P1;HPM_P2
2023/06/13 00:02:04;;;;;;;2.83;1.25;;;25.10;50.70;;;;;;5051649;28;20048;-58
2023/06/13 00:04:31;;;;;;;1.92;1.17;;;25.10;50.70;;;;;;5052416;28;20056;-59
2023/06/13 00:06:58;;;;;;;2.58;1.52;;;25.10;50.80;;;;;;5051288;28;20052;-59
2023/06/13 00:09:26;;;;;;;1.88;1.08;;;25.10;50.70;;;;;;5051896;28;20493;-59
2023/06/13 00:11:53;;;;;;;1.05;1.00;;;25.10;50.80;;;;;;5052123;28;20048;-59
2023/06/13 00:14:23;;;;;;;1.75;1.05;;;25.10;50.80;;;;;;5051711;28;20045;-59
2023/06/13 00:16:50;;;;;;;1.75;1.33;;;25.00;50.70;;;;;;5052352;28;20056;-58
2023/06/13 00:19:19;;;;;;;1.48;1.10;;;25.10;50.80;;;;;;5051574;28;20436;-59
2023/06/13 00:21:46;;;;;;;1.25;1.15;;;25.00;50.70;;;;;;5051988;28;20477;-59
2023/06/13 00:24:14;;;;;;;1.10;0.98;;;25.00;50.80;;;;;;5051753;28;20045;-59
2023/06/13 00:26:41;;;;;;;1.50;1.15;;;25.00;50.70;;;;;;5051555;28;20493;-58
2023/06/13 00:29:09;;;;;;;1.30;1.20;;;25.00;50.70;;;;;;5052333;28;20548;-58
2023/06/13 00:31:36;;;;;;;2.55;1.58;;;25.00;50.80;;;;;;5051866;28;20071;-58
2023/06/13 00:34:04;;;;;;;0.90;0.90;;;25.00;50.80;;;;;;5052000;28;20045;-58
2023/06/13 00:36:33;;;;;;;0.98;0.93;;;25.00;50.80;;;;;;5050516;28;20520;-59
2023/06/13 00:39:01;;;;;;;1.33;1.23;;;25.00;50.80;;;;;;5051626;28;20053;-59
2023/06/13 00:41:31;;;;;;;1.15;1.05;;;25.00;50.80;;;;;;5053524;28;20485;-59
2023/06/13 00:43:58;;;;;;;1.10;1.00;;;25.00;50.80;;;;;;5056232;28;20143;-58
2023/06/13 00:46:32;;;;;;;0.90;0.90;;;25.00;50.80;;;;;;5055874;28;20048;-59
2023/06/13 00:49:01;;;;;;;1.52;1.33;;;25.00;50.80;;;;;;5055702;28;20048;-59
2023/06/13 00:51:29;;;;;;;1.80;1.23;;;24.90;50.80;;;;;;5054548;28;20489;-59
2023/06/13 00:54:00;;;;;;;1.50;1.13;;;24.90;50.80;;;;;;5055528;28;20052;-58
2023/06/13 00:56:29;;;;;;;1.52;1.23;;;25.00;50.80;;;;;;5055014;28;20054;-58
2023/06/13 00:58:59;;;;;;;1.35;1.25;;;24.90;50.80;;;;;;5055805;28;20045;-58
2023/06/13 01:01:30;;;;;;;1.08;0.95;;;25.00;50.80;;;;;;5055627;28;20118;-58
2023/06/13 01:03:59;;;;;;;1.27;0.98;;;24.90;50.70;;;;;;5056048;28;20103;-58
2023/06/13 01:06:30;;;;;;;1.83;1.07;;;25.00;50.80;;;;;;5055831;28;20064;-58
2023/06/13 01:09:02;;;;;;;1.20;1.10;;;25.00;50.70;;;;;;5055945;28;20106;-58
2023/06/13 01:11:40;;;;;;;0.82;0.80;;;25.00;50.70;;;;;;5055700;28;20052;-58
2023/06/13 01:14:30;;;;;;;1.35;1.17;;;25.00;50.70;;;;;;5055121;28;20045;-59
2023/06/13 01:17:08;;;;;;;1.85;1.27;;;25.00;50.60;;;;;;5054498;28;20056;-58
2023/06/13 01:19:39;;;;;;;1.95;0.95;;;25.00;50.60;;;;;;5055267;28;20049;-59
2023/06/13 01:22:14;;;;;;;1.13;1.00;;;25.00;50.60;;;;;;5055590;28;20052;-59
2023/06/13 01:25:08;;;;;;;1.42;1.02;;;25.00;50.60;;;;;;5053311;28;20497;-59
2023/06/13 01:27:38;;;;;;;1.08;1.02;;;25.00;50.60;;;;;;5055258;28;20049;-58
2023/06/13 01:30:07;;;;;;;1.40;1.23;;;25.00;51.10;;;;;;5054856;28;20045;-58
2023/06/13 01:32:36;;;;;;;1.88;1.20;;;25.00;50.60;;;;;;5054156;28;20048;-59
2023/06/13 01:35:04;;;;;;;2.20;1.40;;;25.00;50.50;;;;;;5054846;28;20049;-59
2023/06/13 01:37:32;;;;;;;0.93;0.82;;;25.00;50.60;;;;;;5054041;28;20114;-58
2023/06/13 01:40:03;;;;;;;1.85;1.10;;;25.00;50.50;;;;;;5054620;28;20049;-59
2023/06/13 01:42:30;;;;;;;1.02;0.93;;;25.00;50.50;;;;;;5054459;28;20436;-58
2023/06/13 01:44:57;;;;;;;0.77;0.77;;;25.00;50.50;;;;;;5053640;28;20482;-59
2023/06/13 01:48:04;;;;;;;1.42;1.15;;;25.00;50.50;;;;;;5054459;28;20049;-58
2023/06/13 01:50:47;;;;;;;1.70;1.25;;;25.00;50.50;;;;;;5054776;28;20444;-59
2023/06/13 01:53:28;;;;;;;1.63;1.33;;;24.90;50.50;;;;;;5054180;28;20045;-59
2023/06/13 01:56:06;;;;;;;1.48;1.17;;;25.00;50.60;;;;;;5053304;28;20409;-58
2023/06/13 01:58:39;;;;;;;1.20;1.10;;;24.90;50.60;;;;;;5054585;28;20110;-58
2023/06/13 02:01:08;;;;;;;1.10;1.00;;;24.90;50.60;;;;;;5054423;28;20512;-59
2023/06/13 02:03:36;;;;;;;1.08;0.98;;;24.90;50.60;;;;;;5054525;28;20078;-59
2023/06/13 02:06:03;;;;;;;1.67;1.08;;;24.90;50.60;;;;;;5054117;28;20052;-59
2023/06/13 02:08:31;;;;;;;0.95;0.90;;;24.90;50.60;;;;;;5054666;28;20060;-59
2023/06/13 02:10:58;;;;;;;1.17;1.00;;;24.90;50.60;;;;;;5054083;28;20484;-59
2023/06/13 02:13:26;;;;;;;1.30;1.17;;;24.90;50.60;;;;;;5054281;28;20053;-61
2023/06/13 02:15:53;;;;;;;1.08;0.98;;;24.90;51.20;;;;;;5053293;28;20063;-58
2023/06/13 02:18:20;;;;;;;1.55;1.05;;;24.90;50.70;;;;;;5054473;28;20056;-59
2023/06/13 02:20:47;;;;;;;0.73;0.73;;;24.90;50.70;;;;;;5052652;28;20130;-58
2023/06/13 02:23:16;;;;;;;0.88;0.88;;;24.90;50.60;;;;;;5054271;28;20095;-58
2023/06/13 02:25:45;;;;;;;1.15;1.05;;;24.90;50.70;;;;;;5052159;28;20563;-59
2023/06/13 02:28:13;;;;;;;0.80;0.80;;;24.90;50.70;;;;;;5054068;28;20118;-58
2023/06/13 02:30:40;;;;;;;0.80;0.80;;;24.90;50.70;;;;;;5051817;28;20094;-58
2023/06/13 02:33:08;;;;;;;0.85;0.85;;;24.90;50.70;;;;;;5052380;28;20485;-58
2023/06/13 02:35:36;;;;;;;0.90;0.90;;;24.90;50.70;;;;;;5053953;28;20049;-58
2023/06/13 02:38:06;;;;;;;1.13;0.80;;;24.80;50.70;;;;;;5053341;28;20053;-59
2023/06/13 02:40:35;;;;;;;0.88;0.80;;;24.80;50.70;;;;;;5053098;28;20057;-58
2023/06/13 02:43:02;;;;;;;1.00;1.00;;;24.80;50.70;;;;;;5053152;28;20059;-58
2023/06/13 02:45:30;;;;;;;2.45;1.02;;;24.80;50.70;;;;;;5051667;28;20405;-58
2023/06/13 02:47:57;;;;;;;3.30;1.25;;;24.90;50.70;;;;;;5053437;28;20045;-58
2023/06/13 02:50:25;;;;;;;2.85;0.93;;;24.80;50.70;;;;;;5053524;28;20049;-58
2023/06/13 02:52:52;;;;;;;0.75;0.75;;;24.90;50.70;;;;;;5053801;28;20044;-59
2023/06/13 02:55:20;;;;;;;0.80;0.80;;;24.90;50.70;;;;;;5053123;28;20060;-58
2023/06/13 02:57:47;;;;;;;0.73;0.73;;;24.80;50.70;;;;;;5053498;28;20167;-58
2023/06/13 03:00:18;;;;;;;1.40;0.90;;;24.90;50.70;;;;;;5052338;28;20053;-58
2023/06/13 03:02:45;;;;;;;0.90;0.90;;;24.90;50.70;;;;;;5053924;28;20045;-58
2023/06/13 03:05:15;;;;;;;0.95;0.80;;;24.80;50.70;;;;;;5052307;28;20494;-58
2023/06/13 03:07:46;;;;;;;0.90;0.90;;;24.90;50.70;;;;;;5052283;28;20124;-58
2023/06/13 03:10:15;;;;;;;1.23;1.00;;;24.90;50.70;;;;;;5052909;28;20115;-58
2023/06/13 03:12:43;;;;;;;0.90;0.90;;;24.90;50.70;;;;;;5052879;28;20049;-59
2023/06/13 03:15:11;;;;;;;0.80;0.80;;;24.80;50.60;;;;;;5052680;28;20080;-58
2023/06/13 03:17:39;;;;;;;1.08;0.90;;;24.80;50.60;;;;;;5053261;28;20044;-58
2023/06/13 03:20:08;;;;;;;1.50;0.80;;;24.90;50.60;;;;;;5053006;28;20045;-59
2023/06/13 03:22:35;;;;;;;0.70;0.70;;;24.90;50.50;;;;;;5052825;28;20459;-58
2023/06/13 03:25:04;;;;;;;1.10;1.05;;;24.90;50.40;;;;;;5060052;28;20056;-59
2023/06/13 03:27:32;;;;;;;0.95;0.90;;;24.90;50.30;;;;;;5072600;28;20436;-58
2023/06/13 03:30:00;;;;;;;1.33;0.88;;;24.90;50.30;;;;;;5072474;28;20095;-58
2023/06/13 03:32:27;;;;;;;0.95;0.90;;;25.00;50.30;;;;;;5072612;28;20056;-59
2023/06/13 03:34:55;;;;;;;1.00;0.88;;;24.90;50.10;;;;;;5072171;28;20451;-58
2023/06/13 03:37:22;;;;;;;0.90;0.75;;;25.00;50.60;;;;;;5072166;28;20055;-58
2023/06/13 03:39:49;;;;;;;1.00;0.90;;;25.00;50.00;;;;;;5072464;28;20048;-59
2023/06/13 03:42:17;;;;;;;2.22;1.20;;;25.00;50.00;;;;;;5072404;28;20106;-58
2023/06/13 03:44:48;;;;;;;1.20;0.80;;;25.00;49.90;;;;;;5072656;28;20048;-59
2023/06/13 03:47:15;;;;;;;1.08;1.00;;;25.10;50.00;;;;;;5073170;28;20056;-59
2023/06/13 03:49:43;;;;;;;0.90;0.90;;;25.10;49.90;;;;;;5072197;28;20052;-59
2023/06/13 03:52:11;;;;;;;1.10;1.10;;;25.10;50.40;;;;;;5060002;28;20055;-59
2023/06/13 03:54:39;;;;;;;1.15;1.02;;;25.10;49.70;;;;;;5052486;28;20417;-59
2023/06/13 03:57:07;;;;;;;1.42;0.90;;;25.10;49.70;;;;;;5052595;28;20488;-58
2023/06/13 03:59:35;;;;;;;1.13;0.70;;;25.10;49.70;;;;;;5050301;28;20376;-59
2023/06/13 04:02:03;;;;;;;0.82;0.73;;;25.10;49.60;;;;;;5053020;28;20099;-58
2023/06/13 04:04:32;;;;;;;1.05;1.05;;;25.20;49.60;;;;;;5052105;28;20096;-58
2023/06/13 04:07:04;;;;;;;0.80;0.80;;;25.20;49.60;;;;;;5051968;28;20048;-59
2023/06/13 04:09:31;;;;;;;1.05;0.68;;;25.20;49.50;;;;;;5052474;28;20041;-58
2023/06/13 04:11:59;;;;;;;1.50;1.00;;;25.20;49.50;;;;;;5049848;28;20049;-58
2023/06/13 04:14:26;;;;;;;1.42;0.70;;;25.20;49.50;;;;;;5052377;28;20041;-58
2023/06/13 04:16:53;;;;;;;1.27;0.80;;;25.20;49.50;;;;;;5052783;28;20048;-59
2023/06/13 04:19:21;;;;;;;1.35;0.85;;;25.20;49.40;;;;;;5056318;28;20048;-58
2023/06/13 04:21:48;;;;;;;1.13;0.73;;;25.20;49.40;;;;;;5056210;28;20053;-59
2023/06/13 04:24:16;;;;;;;0.88;0.88;;;25.20;49.30;;;;;;5056606;28;20045;-59
2023/06/13 04:26:46;;;;;;;1.95;1.00;;;25.30;49.40;;;;;;5055597;28;20049;-58
2023/06/13 04:29:15;;;;;;;1.05;1.05;;;25.30;49.40;;;;;;5054946;28;20060;-58
2023/06/13 04:31:43;;;;;;;0.80;0.80;;;25.30;49.30;;;;;;5055865;28;20072;-58
2023/06/13 04:34:11;;;;;;;1.08;0.93;;;25.30;49.20;;;;;;5055749;28;20055;-59
2023/06/13 04:36:41;;;;;;;0.73;0.52;;;25.30;49.20;;;;;;5057204;28;20041;-58
2023/06/13 04:39:09;;;;;;;0.82;0.82;;;25.20;49.10;;;;;;5055015;28;20373;-59
2023/06/13 04:41:43;;;;;;;1.02;0.90;;;25.10;49.00;;;;;;5055254;28;20049;-59
2023/06/13 04:44:13;;;;;;;2.90;1.20;;;25.00;49.10;;;;;;5055119;28;20132;-58
2023/06/13 04:46:43;;;;;;;1.08;0.90;;;24.80;49.30;;;;;;5048957;28;20076;-58
2023/06/13 04:49:12;;;;;;;1.02;1.02;;;24.60;49.60;;;;;;5063992;28;20040;-58
2023/06/13 04:51:40;;;;;;;1.02;1.02;;;24.30;50.00;;;;;;5048583;28;20490;-59
2023/06/13 04:54:09;;;;;;;0.95;0.88;;;24.00;50.20;;;;;;5052877;28;20053;-58
2023/06/13 04:56:37;;;;;;;1.50;1.08;;;23.70;50.10;;;;;;5048788;28;20059;-59
2023/06/13 04:59:08;;;;;;;0.95;0.82;;;23.40;50.00;;;;;;5051816;28;20045;-58
2023/06/13 05:01:37;;;;;;;1.88;1.10;;;23.10;50.10;;;;;;5052506;28;20082;-58
2023/06/13 05:04:05;;;;;;;0.68;0.68;;;22.80;51.20;;;;;;5055158;28;20494;-58
2023/06/13 05:06:37;;;;;;;1.33;1.02;;;22.60;51.70;;;;;;5050405;28;20045;-58
2023/06/13 05:09:06;;;;;;;1.20;1.10;;;22.30;51.40;;;;;;5043616;28;20049;-58
2023/06/13 05:11:33;;;;;;;1.38;1.05;;;22.10;52.00;;;;;;5052011;28;20110;-59
2023/06/13 05:14:01;;;;;;;0.82;0.80;;;21.90;53.10;;;;;;5050773;28;20107;-62
2023/06/13 05:16:29;;;;;;;1.17;1.10;;;21.80;52.60;;;;;;5053519;28;20056;-61
2023/06/13 05:18:57;;;;;;;1.08;0.90;;;21.60;52.30;;;;;;5051070;28;20051;-62
2023/06/13 05:21:24;;;;;;;1.50;0.95;;;21.40;53.60;;;;;;5051507;28;20045;-61
2023/06/13 05:23:53;;;;;;;1.70;1.35;;;21.30;53.60;;;;;;5049439;28;20045;-61
2023/06/13 05:26:21;;;;;;;1.42;0.90;;;21.20;52.80;;;;;;5046717;28;20056;-62
2023/06/13 05:28:48;;;;;;;1.00;0.93;;;21.10;53.70;;;;;;5049995;28;20049;-61
2023/06/13 05:31:15;;;;;;;1.75;1.38;;;21.00;54.20;;;;;;5047641;28;20076;-61
2023/06/13 05:33:43;;;;;;;1.90;0.88;;;20.90;53.30;;;;;;5045138;28;20044;-61
2023/06/13 05:36:11;;;;;;;1.50;1.10;;;20.90;53.00;;;;;;5049034;28;20448;-61
2023/06/13 05:38:39;;;;;;;1.90;1.40;;;20.80;54.30;;;;;;5044042;28;20456;-61
2023/06/13 05:41:06;;;;;;;1.42;1.10;;;20.70;53.90;;;;;;5047856;28;20087;-61
2023/06/13 05:43:34;;;;;;;2.33;1.33;;;20.70;53.00;;;;;;5043486;28;20052;-61
2023/06/13 05:46:01;;;;;;;3.42;1.67;;;20.60;53.70;;;;;;5045709;28;20045;-61
2023/06/13 05:48:29;;;;;;;2.72;1.48;;;20.60;54.10;;;;;;5043723;28;20049;-61
2023/06/13 05:50:57;;;;;;;1.33;1.20;;;20.60;53.40;;;;;;5042064;28;20175;-60
2023/06/13 05:53:24;;;;;;;2.50;1.23;;;20.50;53.10;;;;;;5041238;28;20056;-60
2023/06/13 05:55:52;;;;;;;1.45;1.20;;;20.50;53.80;;;;;;5043263;28;20053;-61
2023/06/13 05:58:19;;;;;;;4.20;1.17;;;20.40;53.80;;;;;;5045629;28;21044;-61
2023/06/13 06:00:47;;;;;;;1.83;1.58;;;20.40;53.20;;;;;;5046656;28;20405;-61
2023/06/13 06:03:14;;;;;;;3.22;1.35;;;20.30;53.50;;;;;;5047475;28;20057;-63
2023/06/13 06:05:41;;;;;;;5.35;1.33;;;20.30;53.70;;;;;;5043103;28;20048;-61
2023/06/13 06:08:12;;;;;;;6.05;1.80;;;20.30;53.30;;;;;;5047718;28;20084;-61
2023/06/13 06:10:39;;;;;;;6.75;1.40;;;20.20;53.60;;;;;;5047956;28;20059;-60
2023/06/13 06:13:06;;;;;;;2.38;1.38;;;20.20;53.30;;;;;;5042051;28;20104;-63
2023/06/13 06:15:35;;;;;;;1.88;1.17;;;20.10;53.80;;;;;;5050603;28;20045;-60
2023/06/13 06:18:02;;;;;;;5.28;1.27;;;20.10;54.10;;;;;;5048189;28;20041;-62
2023/06/13 06:20:30;;;;;;;4.22;1.52;;;20.10;54.30;;;;;;5048635;28;20048;-60
2023/06/13 06:22:57;;;;;;;2.85;1.50;;;20.10;53.60;;;;;;5046846;28;20049;-61
2023/06/13 06:25:25;;;;;;;2.75;1.80;;;20.10;53.90;;;;;;5045035;28;20063;-63
2023/06/13 06:27:53;;;;;;;1.83;1.20;;;20.00;54.30;;;;;;5046317;28;20436;-63
2023/06/13 06:30:20;;;;;;;5.13;1.63;;;20.00;53.80;;;;;;5044619;28;20421;-60
2023/06/13 06:32:47;;;;;;;2.08;1.45;;;20.00;53.30;;;;;;5044865;28;20045;-62
2023/06/13 06:35:15;;;;;;;2.90;1.13;;;20.00;54.20;;;;;;5046681;28;20068;-62
2023/06/13 06:37:43;;;;;;;2.90;0.93;;;19.90;54.70;;;;;;5045379;28;20468;-65
2023/06/13 06:40:11;;;;;;;4.15;1.35;;;20.00;54.60;;;;;;5037723;28;20520;-62
2023/06/13 06:42:39;;;;;;;5.70;1.30;;;20.00;53.20;;;;;;5042357;28;20041;-61
2023/06/13 06:45:09;;;;;;;3.20;1.55;;;20.00;53.20;;;;;;5044034;28;20098;-61
2023/06/13 06:47:37;;;;;;;3.53;1.20;;;19.90;54.30;;;;;;5047937;28;20053;-61
2023/06/13 06:50:04;;;;;;;2.17;1.00;;;19.90;54.20;;;;;;5043201;28;20059;-62
2023/06/13 06:52:32;;;;;;;3.47;1.50;;;20.00;54.30;;;;;;5048659;28;20063;-62
2023/06/13 06:54:59;;;;;;;1.55;0.95;;;19.90;53.50;;;;;;5046767;28;20068;-62
2023/06/13 06:57:26;;;;;;;2.85;1.10;;;19.90;54.20;;;;;;5046225;28;20784;-61
2023/06/13 06:59:55;;;;;;;5.18;1.10;;;20.00;54.40;;;;;;5047191;28;20044;-61
2023/06/13 07:02:27;;;;;;;1.63;1.00;;;20.00;54.80;;;;;;5042516;28;20045;-62
2023/06/13 07:04:55;;;;;;;1.48;1.10;;;20.00;53.50;;;;;;5040432;28;20136;-60
2023/06/13 07:07:22;;;;;;;1.75;1.33;;;19.90;53.80;;;;;;5044136;28;20084;-61
2023/06/13 07:09:50;;;;;;;3.75;1.25;;;20.00;54.80;;;;;;5042291;28;20048;-60
2023/06/13 07:12:17;;;;;;;2.88;1.00;;;20.00;55.00;;;;;;5041076;28;20456;-61
2023/06/13 07:14:44;;;;;;;1.50;1.27;;;20.00;53.80;;;;;;5045956;28;20041;-61
2023/06/13 07:17:11;;;;;;;3.53;1.00;;;20.00;54.00;;;;;;5041538;28;20092;-61
2023/06/13 07:19:38;;;;;;;3.15;1.23;;;20.10;55.20;;;;;;5044460;28;20437;-60
2023/06/13 07:22:07;;;;;;;2.38;1.27;;;20.00;54.70;;;;;;5041098;28;20048;-62
2023/06/13 07:24:34;;;;;;;4.35;1.88;;;20.00;54.00;;;;;;5040619;28;20071;-62
2023/06/13 07:27:01;;;;;;;3.55;1.45;;;20.00;54.20;;;;;;5046095;28;20044;-62
2023/06/13 07:29:28;;;;;;;5.40;1.10;;;20.00;54.70;;;;;;5046539;28;20049;-61
2023/06/13 07:31:55;;;;;;;1.73;1.30;;;20.10;54.50;;;;;;5053378;28;20056;-61
2023/06/13 07:34:23;;;;;;;3.65;1.10;;;20.00;54.40;;;;;;5046905;28;20076;-61
2023/06/13 07:36:54;;;;;;;1.77;1.08;;;20.00;53.50;;;;;;5047589;28;20052;-61
2023/06/13 07:39:21;;;;;;;2.42;1.30;;;20.00;54.10;;;;;;5044809;28;20060;-62
2023/06/13 07:41:49;;;;;;;4.63;1.20;;;20.00;54.30;;;;;;5049381;28;20114;-62
2023/06/13 07:44:18;;;;;;;1.85;1.17;;;20.00;54.80;;;;;;5044612;28;20148;-62
2023/06/13 07:46:47;;;;;;;4.15;1.13;;;20.00;54.10;;;;;;5042673;28;20493;-61
2023/06/13 07:49:15;;;;;;;4.88;1.90;;;20.00;53.80;;;;;;5047329;28;20516;-62
2023/06/13 07:51:43;;;;;;;3.25;2.08;;;20.00;54.90;;;;;;5048294;28;20044;-61
2023/06/13 07:54:10;;;;;;;2.78;1.63;;;20.00;54.80;;;;;;5043801;28;20049;-61
2023/06/13 07:56:37;;;;;;;3.88;2.00;;;20.00;53.80;;;;;;5041036;28;20048;-62
2023/06/13 07:59:04;;;;;;;3.00;1.73;;;20.00;54.50;;;;;;5041449;28;20049;-62
2023/06/13 08:01:31;;;;;;;5.40;2.08;;;20.00;54.90;;;;;;5043086;28;20099;-61
2023/06/13 08:03:59;;;;;;;4.18;1.48;;;20.00;53.80;;;;;;5039966;28;20048;-62
2023/06/13 08:06:26;;;;;;;5.10;1.65;;;20.00;53.50;;;;;;5041941;28;20045;-62
2023/06/13 08:08:54;;;;;;;10.27;2.15;;;20.00;54.40;;;;;;5042143;28;20056;-62
2023/06/13 08:11:21;;;;;;;4.18;1.40;;;20.00;53.50;;;;;;5042359;28;20062;-61
2023/06/13 08:13:49;;;;;;;4.95;1.20;;;20.00;53.70;;;;;;5044379;28;20107;-62
2023/06/13 08:16:16;;;;;;;4.45;1.55;;;20.00;54.70;;;;;;5042756;28;20048;-63
2023/06/13 08:18:43;;;;;;;7.03;1.58;;;20.00;55.10;;;;;;5046503;28;20095;-62
2023/06/13 08:21:11;;;;;;;1.88;1.30;;;19.90;53.90;;;;;;5042932;28;20081;-61
2023/06/13 08:23:38;;;;;;;5.00;1.45;;;19.90;54.50;;;;;;5048602;28;20381;-62
2023/06/13 08:26:05;;;;;;;4.97;1.90;;;19.90;55.40;;;;;;5039154;28;20128;-61
2023/06/13 08:28:33;;;;;;;3.50;1.67;;;19.90;54.90;;;;;;5041836;28;20087;-61
2023/06/13 08:31:01;;;;;;;4.13;2.00;;;19.90;54.10;;;;;;5038029;28;20436;-61
2023/06/13 08:33:48;;;;;;;4.93;2.25;;;19.80;55.60;;;;;;5045676;28;20067;-62
2023/06/13 08:36:36;;;;;;;3.00;1.90;;;19.90;54.90;;;;;;5030111;28;20056;-61
2023/06/13 08:39:04;;;;;;;5.13;2.50;;;19.80;54.00;;;;;;5047980;28;20055;-62
2023/06/13 08:41:37;;;;;;;4.72;2.10;;;19.80;54.70;;;;;;5056922;28;20049;-62
2023/06/13 08:44:04;;;;;;;3.28;2.25;;;19.80;55.30;;;;;;5042253;28;20055;-62
2023/06/13 08:46:36;;;;;;;6.75;2.40;;;19.90;54.40;;;;;;5044337;28;20091;-63
2023/06/13 08:49:04;;;;;;;5.30;2.20;;;19.80;54.80;;;;;;5045171;28;20077;-62
2023/06/13 08:51:32;;;;;;;3.83;1.88;;;19.80;55.90;;;;;;5039824;28;20049;-61
2023/06/13 08:54:02;;;;;;;2.67;1.70;;;19.90;55.10;;;;;;5043827;28;20167;-62
2023/06/13 08:56:37;;;;;;;4.10;2.15;;;19.90;55.00;;;;;;5043250;28;20056;-63
2023/06/13 08:59:19;;;;;;;7.13;2.47;;;19.90;54.90;;;;;;5045522;28;20048;-61
2023/06/13 09:01:48;;;;;;;5.35;2.22;;;20.00;55.10;;;;;;5046989;28;20049;-61
2023/06/13 09:04:17;;;;;;;4.75;2.33;;;20.00;54.90;;;;;;5049264;28;20076;-61
2023/06/13 09:06:45;;;;;;;4.05;2.10;;;20.00;55.90;;;;;;5044547;28;20059;-61
2023/06/13 09:09:13;;;;;;;7.35;2.17;;;20.00;56.10;;;;;;5049891;28;20048;-61
2023/06/13 09:11:40;;;;;;;4.60;2.15;;;20.00;55.20;;;;;;5044851;28;20045;-62
2023/06/13 09:14:08;;;;;;;4.45;2.30;;;20.00;55.20;;;;;;5059825;28;20049;-61
2023/06/13 09:16:36;;;;;;;5.57;1.95;;;20.10;56.10;;;;;;5043510;28;20091;-62
2023/06/13 09:19:03;;;;;;;2.92;2.00;;;20.20;55.40;;;;;;5049510;28;20129;-61
2023/06/13 09:21:31;;;;;;;2.80;2.05;;;20.20;54.80;;;;;;5043063;28;20076;-61
2023/06/13 09:24:00;;;;;;;4.30;1.65;;;20.20;55.40;;;;;;5049036;28;20057;-62
2023/06/13 09:26:28;;;;;;;7.22;1.70;;;20.20;54.90;;;;;;5049901;28;20057;-62
2023/06/13 09:28:57;;;;;;;4.60;1.70;;;20.30;54.70;;;;;;5048961;28;20098;-62
2023/06/13 09:31:29;;;;;;;2.97;1.80;;;20.20;55.00;;;;;;5048780;28;20045;-62
2023/06/13 09:34:02;;;;;;;7.15;1.63;;;20.30;55.10;;;;;;5045022;28;20044;-62
2023/06/13 09:36:29;;;;;;;5.32;1.98;;;20.30;54.60;;;;;;5045267;28;20712;-61
2023/06/13 09:38:59;;;;;;;2.88;1.40;;;20.30;54.50;;;;;;5045157;28;20056;-61
2023/06/13 09:41:30;;;;;;;4.28;1.75;;;20.30;54.80;;;;;;5042028;28;20095;-61
2023/06/13 09:44:01;;;;;;;5.43;1.30;;;20.30;54.10;;;;;;5048430;28;20094;-62
2023/06/13 09:46:29;;;;;;;2.90;1.42;;;20.30;53.50;;;;;;5046240;28;20053;-61
2023/06/13 09:48:56;;;;;;;3.08;1.55;;;20.30;53.70;;;;;;5051455;28;20550;-61
2023/06/13 09:51:25;;;;;;;4.50;1.80;;;20.30;53.20;;;;;;5043721;28;20049;-61
2023/06/13 09:53:52;;;;;;;2.55;1.42;;;20.20;53.40;;;;;;5041739;28;20498;-63
2023/06/13 09:56:19;;;;;;;1.88;1.42;;;20.20;53.80;;;;;;5048851;28;20540;-62
2023/06/13 09:58:51;;;;;;;2.20;1.20;;;20.20;54.20;;;;;;5046914;28;20438;-62
2023/06/13 10:01:19;;;;;;;1.85;1.35;;;20.20;52.90;;;;;;5046751;28;20098;-62
2023/06/13 10:03:47;;;;;;;1.25;1.08;;;20.20;52.40;;;;;;5043882;28;20064;-62
2023/06/13 10:06:15;;;;;;;1.52;1.33;;;20.20;53.40;;;;;;5048035;28;20257;-62
2023/06/13 10:08:42;;;;;;;5.43;1.65;;;20.20;53.00;;;;;;5043203;28;20415;-62
2023/06/13 10:11:14;;;;;;;2.63;1.48;;;20.20;52.90;;;;;;5048492;28;20056;-61
2023/06/13 10:13:50;;;;;;;2.40;1.30;;;20.20;52.90;;;;;;5047243;28;20080;-62
2023/06/13 10:16:21;;;;;;;5.88;1.70;;;20.20;53.00;;;;;;5054428;28;20375;-62
2023/06/13 10:18:50;;;;;;;5.28;1.88;;;20.20;52.40;;;;;;5046035;28;20136;-61
2023/06/13 10:21:18;;;;;;;2.13;1.35;;;20.20;52.80;;;;;;5045819;28;20151;-61
2023/06/13 10:23:49;;;;;;;2.63;1.80;;;20.20;53.00;;;;;;5048442;28;20478;-62
2023/06/13 10:26:36;;;;;;;3.22;1.50;;;20.20;52.80;;;;;;5047694;28;20060;-63
2023/06/13 10:29:42;;;;;;;4.22;1.80;;;20.20;52.70;;;;;;5047497;28;20053;-64
2023/06/13 10:32:40;;;;;;;4.25;2.10;;;20.20;53.30;;;;;;5044892;28;20064;-63
2023/06/13 10:35:33;;;;;;;4.45;1.70;;;20.10;54.00;;;;;;5046840;28;20103;-64
2023/06/13 10:38:43;;;;;;;3.40;1.70;;;20.20;53.60;;;;;;5043557;28;20094;-63
2023/06/13 10:41:48;;;;;;;4.10;1.73;;;20.20;53.60;;;;;;5058577;28;20041;-63
2023/06/13 10:44:38;;;;;;;2.35;1.52;;;20.20;52.80;;;;;;5047706;28;20052;-62
2023/06/13 10:47:07;;;;;;;2.75;1.30;;;20.20;52.80;;;;;;5044123;28;20044;-62
2023/06/13 10:49:38;;;;;;;3.05;1.60;;;20.20;52.70;;;;;;5045492;28;20045;-61
2023/06/13 10:52:12;;;;;;;3.45;1.88;;;20.20;52.50;;;;;;5043163;28;20501;-62
2023/06/13 10:54:40;;;;;;;1.30;1.20;;;20.20;52.80;;;;;;5047520;28;20061;-62
2023/06/13 10:57:08;;;;;;;2.08;1.45;;;20.20;52.90;;;;;;5043349;28;20493;-63
2023/06/13 10:59:37;;;;;;;4.65;1.30;;;20.20;52.70;;;;;;5043717;28;20057;-62
2023/06/13 11:02:08;;;;;;;3.63;1.73;;;20.20;52.40;;;;;;5070610;28;20049;-62
2023/06/13 11:04:40;;;;;;;7.75;1.73;;;20.20;52.70;;;;;;5046222;28;20060;-61
2023/06/13 11:07:26;;;;;;;2.83;1.60;;;20.30;52.70;;;;;;5044979;28;20045;-62
2023/06/13 11:10:11;;;;;;;3.90;1.73;;;20.30;52.90;;;;;;5058830;28;20048;-65
2023/06/13 11:12:42;;;;;;;2.05;1.65;;;20.30;53.00;;;;;;5043335;28;20045;-62
2023/06/13 11:15:27;;;;;;;1.58;1.40;;;20.30;52.40;;;;;;5044619;28;20045;-62
2023/06/13 11:18:25;;;;;;;2.90;1.80;;;20.30;52.30;;;;;;5046141;28;20052;-61
2023/06/13 11:20:57;;;;;;;1.90;1.70;;;20.30;52.90;;;;;;5055831;28;20044;-62
2023/06/13 11:23:38;;;;;;;2.65;1.27;;;20.40;53.00;;;;;;5046275;28;20489;-63
2023/06/13 11:26:05;;;;;;;1.73;1.63;;;20.40;52.30;;;;;;5043106;28;20076;-61
2023/06/13 11:28:33;;;;;;;2.80;1.42;;;20.40;52.60;;;;;;5048995;28;20384;-62
2023/06/13 11:31:04;;;;;;;3.28;1.70;;;20.50;52.30;;;;;;5046984;28;20053;-62
2023/06/13 11:33:47;;;;;;;;;;;20.40;52.30;;;;;;5045067;28;20498;-61
2023/06/13 11:36:18;;;;;;;2.92;1.73;;;20.40;52.10;;;;;;5048316;28;19933;-62
2023/06/13 11:39:03;;;;;;;1.63;1.52;;;20.50;53.10;;;;;;5043004;28;20382;-61
2023/06/13 11:41:32;;;;;;;2.35;1.88;;;20.50;52.80;;;;;;5045340;28;20041;-61
2023/06/13 11:43:59;;;;;;;5.82;1.60;;;20.60;53.00;;;;;;5044566;28;20049;-62
2023/06/13 11:46:27;;;;;;;3.03;1.90;;;20.60;52.90;;;;;;5038806;28;20072;-61
2023/06/13 11:48:55;;;;;;;1.98;1.77;;;20.60;52.70;;;;;;5040739;28;20136;-62
2023/06/13 11:51:23;;;;;;;2.15;1.90;;;20.60;53.20;;;;;;5038534;28;20134;-63
2023/06/13 11:53:53;;;;;;;1.88;1.75;;;20.60;52.80;;;;;;5042931;28;20457;-63
2023/06/13 11:56:22;;;;;;;3.13;2.00;;;20.70;52.60;;;;;;5040219;28;20405;-63
2023/06/13 11:58:50;;;;;;;2.33;1.88;;;20.70;52.40;;;;;;5073869;28;20076;-63
2023/06/13 12:01:18;;;;;;;2.38;1.67;;;20.70;52.10;;;;;;5043175;28;20048;-64
2023/06/13 12:03:46;;;;;;;2.33;2.00;;;20.70;51.90;;;;;;5035703;28;20052;-62
2023/06/13 12:06:14;;;;;;;3.53;1.92;;;20.70;52.10;;;;;;5038780;28;20406;-63
2023/06/13 12:08:44;;;;;;;4.63;1.95;;;20.70;52.40;;;;;;5042252;28;20717;-62
2023/06/13 12:11:14;;;;;;;2.17;1.65;;;20.60;51.60;;;;;;5045271;28;20049;-62
2023/06/13 12:13:56;;;;;;;;;;;20.70;51.10;;;;;;5043697;28;20049;-61
2023/06/13 12:16:26;;;;;;;4.05;1.70;;;20.70;51.60;;;;;;5043447;28;19927;-62
2023/06/13 12:18:54;;;;;;;4.93;3.08;;;20.70;51.80;;;;;;5043244;28;20497;-61
2023/06/13 12:21:32;;;;;;;1.92;1.58;;;20.70;49.90;;;;;;5039881;28;20565;-62
2023/06/13 12:24:02;;;;;;;1.60;1.50;;;20.70;50.30;;;;;;5039768;28;20481;-62
2023/06/13 12:26:33;;;;;;;2.83;1.90;;;20.80;50.70;;;;;;5047546;28;20057;-62
2023/06/13 12:29:06;;;;;;;1.95;1.80;;;20.80;50.50;;;;;;5041213;28;20048;-61
2023/06/13 12:31:38;;;;;;;5.15;1.67;;;20.80;49.30;;;;;;5043948;28;20041;-61
2023/06/13 12:34:26;;;;;;;2.00;1.73;;;20.80;50.50;;;;;;5040829;28;20068;-58
2023/06/13 12:36:59;;;;;;;2.53;1.77;;;20.80;50.70;;;;;;5043692;28;20041;-61
2023/06/13 12:39:30;;;;;;;3.50;1.75;;;20.80;48.90;;;;;;5047070;28;20056;-63
2023/06/13 12:42:02;;;;;;;2.92;2.10;;;20.90;49.20;;;;;;5047562;28;20096;-62
2023/06/13 12:44:34;;;;;;;3.47;2.00;;;20.80;49.20;;;;;;5047856;28;20099;-64
2023/06/13 12:47:03;;;;;;;2.03;1.83;;;20.80;48.90;;;;;;5045647;28;20041;-63
2023/06/13 12:49:35;;;;;;;2.17;1.60;;;20.80;48.50;;;;;;5042346;28;20077;-63
2023/06/13 12:52:05;;;;;;;1.70;1.60;;;20.70;48.20;;;;;;5043792;28;20107;-64
2023/06/13 12:54:35;;;;;;;3.58;1.80;;;20.70;48.10;;;;;;5047868;28;20443;-63
2023/06/13 12:57:08;;;;;;;2.60;2.23;;;20.70;48.30;;;;;;5050231;28;20102;-63
2023/06/13 12:59:42;;;;;;;3.22;1.67;;;20.70;48.60;;;;;;5046796;28;20138;-62
2023/06/13 13:02:15;;;;;;;2.40;1.88;;;20.70;48.50;;;;;;5051151;28;20506;-62
2023/06/13 13:04:44;;;;;;;2.60;1.40;;;20.70;48.10;;;;;;5045849;28;20136;-62